sensor_id;sensor_type;location;lat;lon;timestamp;P1;durP1;ratioP1;P2;durP2;ratioP2
24635;SDS011;12772;49.794;10.024;2023-07-16T00:01:43;4.55;;;3.40;;
24635;SDS011;12772;49.794;10.024;2023-07-16T00:05:45;5.07;;;3.65;;
24635;SDS011;12772;49.794;10.024;2023-07-16T00:09:50;3.75;;;3.17;;
24635;SDS011;12772;49.794;10.024;2023-07-16T00:13:52;3.50;;;3.20;;
24635;SDS011;12772;49.794;10.024;2023-07-16T00:17:54;3.55;;;3.05;;
24635;SDS011;12772;49.794;10.024;2023-07-16T00:21:56;4.10;;;3.42;;
24635;SDS011;12772;49.794;10.024;2023-07-16T00:25:58;4.53;;;3.67;;
24635;SDS011;12772;49.794;10.024;2023-07-16T00:30:00;3.47;;;3.17;;
24635;SDS011;12772;49.794;10.024;2023-07-16T00:34:02;3.55;;;3.10;;
24635;SDS011;12772;49.794;10.024;2023-07-16T00:38:04;3.38;;;3.08;;
24635;SDS011;12772;49.794;10.024;2023-07-16T00:42:06;3.58;;;3.28;;
24635;SDS011;12772;49.794;10.024;2023-07-16T00:46:08;5.20;;;2.97;;
24635;SDS011;12772;49.794;10.024;2023-07-16T00:50:11;3.40;;;2.92;;
24635;SDS011;12772;49.794;10.024;2023-07-16T00:54:14;2.80;;;2.60;;
24635;SDS011;12772;49.794;10.024;2023-07-16T00:58:16;3.20;;;2.83;;
24635;SDS011;12772;49.794;10.024;2023-07-16T01:02:18;2.45;;;2.28;;
24635;SDS011;12772;49.794;10.024;2023-07-16T01:06:31;2.50;;;2.30;;
24635;SDS011;12772;49.794;10.024;2023-07-16T01:10:37;2.70;;;2.50;;
24635;SDS011;12772;49.794;10.024;2023-07-16T01:14:40;2.67;;;2.47;;
24635;SDS011;12772;49.794;10.024;2023-07-16T01:18:43;2.75;;;2.10;;
24635;SDS011;12772;49.794;10.024;2023-07-16T01:22:48;1.98;;;1.85;;
24635;SDS011;12772;49.794;10.024;2023-07-16T01:27:17;2.15;;;2.05;;
24635;SDS011;12772;49.794;10.024;2023-07-16T01:31:42;2.35;;;2.15;;
24635;SDS011;12772;49.794;10.024;2023-07-16T01:35:46;4.30;;;2.85;;
24635;SDS011;12772;49.794;10.024;2023-07-16T01:39:50;5.75;;;2.63;;
24635;SDS011;12772;49.794;10.024;2023-07-16T01:43:52;3.03;;;2.80;;
24635;SDS011;12772;49.794;10.024;2023-07-16T01:52:29;5.22;;;2.92;;
24635;SDS011;12772;49.794;10.024;2023-07-16T01:56:31;3.05;;;2.75;;
24635;SDS011;12772;49.794;10.024;2023-07-16T02:00:34;3.08;;;2.47;;
24635;SDS011;12772;49.794;10.024;2023-07-16T02:04:36;4.45;;;2.35;;
24635;SDS011;12772;49.794;10.024;2023-07-16T02:08:38;2.90;;;2.50;;
24635;SDS011;12772;49.794;10.024;2023-07-16T02:12:40;3.28;;;2.97;;
24635;SDS011;12772;49.794;10.024;2023-07-16T02:16:42;3.80;;;2.75;;
24635;SDS011;12772;49.794;10.024;2023-07-16T02:20:44;3.90;;;2.33;;
24635;SDS011;12772;49.794;10.024;2023-07-16T02:24:46;2.42;;;2.22;;
24635;SDS011;12772;49.794;10.024;2023-07-16T02:28:48;2.50;;;2.30;;
24635;SDS011;12772;49.794;10.024;2023-07-16T02:32:50;2.03;;;1.77;;
24635;SDS011;12772;49.794;10.024;2023-07-16T02:36:52;3.22;;;1.67;;
24635;SDS011;12772;49.794;10.024;2023-07-16T02:40:54;3.95;;;1.83;;
24635;SDS011;12772;49.794;10.024;2023-07-16T02:44:56;3.00;;;1.90;;
24635;SDS011;12772;49.794;10.024;2023-07-16T02:48:58;2.08;;;1.70;;
24635;SDS011;12772;49.794;10.024;2023-07-16T02:53:00;2.67;;;1.70;;
24635;SDS011;12772;49.794;10.024;2023-07-16T02:57:03;1.58;;;1.48;;
24635;SDS011;12772;49.794;10.024;2023-07-16T03:01:05;1.73;;;1.38;;
24635;SDS011;12772;49.794;10.024;2023-07-16T03:05:07;1.95;;;1.60;;
24635;SDS011;12772;49.794;10.024;2023-07-16T03:09:09;3.20;;;1.70;;
24635;SDS011;12772;49.794;10.024;2023-07-16T03:13:12;2.65;;;1.80;;
24635;SDS011;12772;49.794;10.024;2023-07-16T03:17:14;3.40;;;1.42;;
24635;SDS011;12772;49.794;10.024;2023-07-16T03:21:16;2.38;;;1.80;;
24635;SDS011;12772;49.794;10.024;2023-07-16T03:25:18;2.50;;;2.03;;
24635;SDS011;12772;49.794;10.024;2023-07-16T03:29:20;5.43;;;1.70;;
24635;SDS011;12772;49.794;10.024;2023-07-16T03:33:22;2.28;;;1.50;;
24635;SDS011;12772;49.794;10.024;2023-07-16T03:37:24;1.98;;;1.77;;
24635;SDS011;12772;49.794;10.024;2023-07-16T03:41:26;1.73;;;1.52;;
24635;SDS011;12772;49.794;10.024;2023-07-16T03:45:28;3.63;;;1.80;;
24635;SDS011;12772;49.794;10.024;2023-07-16T03:49:30;5.25;;;1.70;;
24635;SDS011;12772;49.794;10.024;2023-07-16T03:53:32;3.92;;;1.90;;
24635;SDS011;12772;49.794;10.024;2023-07-16T03:57:34;1.83;;;1.73;;
24635;SDS011;12772;49.794;10.024;2023-07-16T04:01:36;2.28;;;1.70;;
24635;SDS011;12772;49.794;10.024;2023-07-16T04:05:38;1.70;;;1.60;;
24635;SDS011;12772;49.794;10.024;2023-07-16T04:09:40;6.35;;;1.77;;
24635;SDS011;12772;49.794;10.024;2023-07-16T04:13:42;2.60;;;1.67;;
24635;SDS011;12772;49.794;10.024;2023-07-16T04:17:44;2.13;;;1.73;;
24635;SDS011;12772;49.794;10.024;2023-07-16T04:21:46;2.17;;;1.77;;
24635;SDS011;12772;49.794;10.024;2023-07-16T04:25:51;3.60;;;1.77;;
24635;SDS011;12772;49.794;10.024;2023-07-16T04:29:54;3.67;;;1.63;;
24635;SDS011;12772;49.794;10.024;2023-07-16T04:33:56;2.20;;;1.55;;
24635;SDS011;12772;49.794;10.024;2023-07-16T04:37:58;3.53;;;1.67;;
24635;SDS011;12772;49.794;10.024;2023-07-16T04:42:00;4.30;;;2.10;;
24635;SDS011;12772;49.794;10.024;2023-07-16T04:46:02;2.70;;;1.58;;
24635;SDS011;12772;49.794;10.024;2023-07-16T04:50:05;3.25;;;1.60;;
24635;SDS011;12772;49.794;10.024;2023-07-16T04:54:07;3.03;;;1.90;;
24635;SDS011;12772;49.794;10.024;2023-07-16T04:58:11;2.83;;;2.33;;
24635;SDS011;12772;49.794;10.024;2023-07-16T05:02:13;2.95;;;1.80;;
24635;SDS011;12772;49.794;10.024;2023-07-16T05:06:17;5.95;;;2.10;;
24635;SDS011;12772;49.794;10.024;2023-07-16T05:10:19;2.97;;;2.30;;
24635;SDS011;12772;49.794;10.024;2023-07-16T05:14:21;6.55;;;1.98;;
24635;SDS011;12772;49.794;10.024;2023-07-16T05:18:23;2.50;;;2.05;;
24635;SDS011;12772;49.794;10.024;2023-07-16T05:22:25;5.00;;;1.95;;
24635;SDS011;12772;49.794;10.024;2023-07-16T05:26:27;5.43;;;1.90;;
24635;SDS011;12772;49.794;10.024;2023-07-16T05:30:29;4.50;;;2.30;;
24635;SDS011;12772;49.794;10.024;2023-07-16T05:34:31;2.55;;;2.10;;
24635;SDS011;12772;49.794;10.024;2023-07-16T05:38:34;8.25;;;2.50;;
24635;SDS011;12772;49.794;10.024;2023-07-16T05:42:36;4.65;;;2.20;;
24635;SDS011;12772;49.794;10.024;2023-07-16T05:46:38;5.70;;;2.30;;
24635;SDS011;12772;49.794;10.024;2023-07-16T05:50:43;4.18;;;2.30;;
24635;SDS011;12772;49.794;10.024;2023-07-16T05:54:45;3.95;;;2.25;;
24635;SDS011;12772;49.794;10.024;2023-07-16T05:58:47;6.45;;;2.65;;
24635;SDS011;12772;49.794;10.024;2023-07-16T06:02:49;4.63;;;2.30;;
24635;SDS011;12772;49.794;10.024;2023-07-16T06:06:51;6.45;;;2.67;;
24635;SDS011;12772;49.794;10.024;2023-07-16T06:10:53;6.72;;;2.33;;
24635;SDS011;12772;49.794;10.024;2023-07-16T06:14:56;5.13;;;2.10;;
24635;SDS011;12772;49.794;10.024;2023-07-16T06:18:58;4.68;;;2.10;;
24635;SDS011;12772;49.794;10.024;2023-07-16T06:23:00;4.35;;;2.42;;
24635;SDS011;12772;49.794;10.024;2023-07-16T06:27:02;3.50;;;1.90;;
24635;SDS011;12772;49.794;10.024;2023-07-16T06:31:04;3.50;;;2.10;;
24635;SDS011;12772;49.794;10.024;2023-07-16T06:35:06;6.07;;;2.38;;
24635;SDS011;12772;49.794;10.024;2023-07-16T06:39:09;4.20;;;2.17;;
24635;SDS011;12772;49.794;10.024;2023-07-16T06:43:11;3.40;;;2.03;;
24635;SDS011;12772;49.794;10.024;2023-07-16T06:47:13;4.00;;;2.08;;
24635;SDS011;12772;49.794;10.024;2023-07-16T06:51:15;3.20;;;1.80;;
24635;SDS011;12772;49.794;10.024;2023-07-16T06:55:17;6.38;;;2.72;;
24635;SDS011;12772;49.794;10.024;2023-07-16T06:59:19;5.78;;;2.40;;
24635;SDS011;12772;49.794;10.024;2023-07-16T07:03:21;4.38;;;2.17;;
24635;SDS011;12772;49.794;10.024;2023-07-16T07:07:23;2.13;;;1.70;;
24635;SDS011;12772;49.794;10.024;2023-07-16T07:11:25;4.00;;;2.63;;
24635;SDS011;12772;49.794;10.024;2023-07-16T07:15:27;6.68;;;2.25;;
24635;SDS011;12772;49.794;10.024;2023-07-16T07:19:29;3.10;;;2.30;;
24635;SDS011;12772;49.794;10.024;2023-07-16T07:23:32;4.70;;;1.92;;
24635;SDS011;12772;49.794;10.024;2023-07-16T07:27:34;1.92;;;1.80;;
24635;SDS011;12772;49.794;10.024;2023-07-16T07:31:36;3.40;;;2.33;;
24635;SDS011;12772;49.794;10.024;2023-07-16T07:35:38;4.80;;;2.30;;
24635;SDS011;12772;49.794;10.024;2023-07-16T07:39:40;3.13;;;2.05;;
24635;SDS011;12772;49.794;10.024;2023-07-16T07:43:42;4.38;;;2.05;;
24635;SDS011;12772;49.794;10.024;2023-07-16T07:47:44;2.92;;;1.92;;
24635;SDS011;12772;49.794;10.024;2023-07-16T07:51:46;4.57;;;2.10;;
24635;SDS011;12772;49.794;10.024;2023-07-16T07:55:49;5.32;;;2.30;;
24635;SDS011;12772;49.794;10.024;2023-07-16T07:59:51;2.95;;;2.10;;
24635;SDS011;12772;49.794;10.024;2023-07-16T08:03:57;2.92;;;2.00;;
24635;SDS011;12772;49.794;10.024;2023-07-16T08:07:59;3.88;;;2.03;;
24635;SDS011;12772;49.794;10.024;2023-07-16T08:12:02;3.42;;;2.20;;
24635;SDS011;12772;49.794;10.024;2023-07-16T08:16:04;4.38;;;2.20;;
24635;SDS011;12772;49.794;10.024;2023-07-16T08:20:06;3.88;;;2.33;;
24635;SDS011;12772;49.794;10.024;2023-07-16T08:24:08;6.20;;;2.67;;
24635;SDS011;12772;49.794;10.024;2023-07-16T08:28:10;5.55;;;2.33;;
24635;SDS011;12772;49.794;10.024;2023-07-16T08:32:13;3.05;;;1.90;;
24635;SDS011;12772;49.794;10.024;2023-07-16T08:36:15;4.18;;;2.28;;
24635;SDS011;12772;49.794;10.024;2023-07-16T08:40:17;7.07;;;2.25;;
24635;SDS011;12772;49.794;10.024;2023-07-16T08:44:22;5.55;;;2.25;;
24635;SDS011;12772;49.794;10.024;2023-07-16T08:48:24;3.03;;;1.70;;
24635;SDS011;12772;49.794;10.024;2023-07-16T08:52:29;6.65;;;1.92;;
24635;SDS011;12772;49.794;10.024;2023-07-16T08:56:31;2.33;;;2.03;;
24635;SDS011;12772;49.794;10.024;2023-07-16T09:00:33;6.35;;;2.30;;
24635;SDS011;12772;49.794;10.024;2023-07-16T09:04:36;4.82;;;2.40;;
24635;SDS011;12772;49.794;10.024;2023-07-16T09:08:38;4.95;;;2.10;;
24635;SDS011;12772;49.794;10.024;2023-07-16T09:12:46;3.20;;;2.50;;
24635;SDS011;12772;49.794;10.024;2023-07-16T09:16:49;3.80;;;2.35;;
24635;SDS011;12772;49.794;10.024;2023-07-16T09:20:57;4.95;;;2.20;;
24635;SDS011;12772;49.794;10.024;2023-07-16T09:25:03;4.75;;;1.92;;
24635;SDS011;12772;49.794;10.024;2023-07-16T09:29:05;4.28;;;1.90;;
24635;SDS011;12772;49.794;10.024;2023-07-16T09:33:13;4.15;;;2.10;;
24635;SDS011;12772;49.794;10.024;2023-07-16T09:37:17;4.53;;;2.05;;
24635;SDS011;12772;49.794;10.024;2023-07-16T09:41:23;3.92;;;1.98;;
24635;SDS011;12772;49.794;10.024;2023-07-16T09:45:26;3.00;;;2.05;;
24635;SDS011;12772;49.794;10.024;2023-07-16T09:49:29;6.03;;;2.30;;
24635;SDS011;12772;49.794;10.024;2023-07-16T09:53:31;3.80;;;2.13;;
24635;SDS011;12772;49.794;10.024;2023-07-16T09:57:38;4.93;;;2.63;;
24635;SDS011;12772;49.794;10.024;2023-07-16T10:01:43;3.50;;;1.98;;
24635;SDS011;12772;49.794;10.024;2023-07-16T10:05:45;3.38;;;2.17;;
24635;SDS011;12772;49.794;10.024;2023-07-16T10:09:52;4.25;;;2.10;;
24635;SDS011;12772;49.794;10.024;2023-07-16T10:13:56;2.85;;;1.92;;
24635;SDS011;12772;49.794;10.024;2023-07-16T10:17:58;3.50;;;2.05;;
24635;SDS011;12772;49.794;10.024;2023-07-16T10:22:00;4.03;;;2.47;;
24635;SDS011;12772;49.794;10.024;2023-07-16T10:26:03;4.40;;;2.20;;
24635;SDS011;12772;49.794;10.024;2023-07-16T10:30:06;4.00;;;2.08;;
24635;SDS011;12772;49.794;10.024;2023-07-16T10:34:08;4.78;;;2.17;;
24635;SDS011;12772;49.794;10.024;2023-07-16T10:38:11;4.38;;;2.50;;
24635;SDS011;12772;49.794;10.024;2023-07-16T10:42:13;4.68;;;2.22;;
24635;SDS011;12772;49.794;10.024;2023-07-16T10:46:16;4.03;;;2.00;;
24635;SDS011;12772;49.794;10.024;2023-07-16T10:50:19;4.45;;;2.13;;
24635;SDS011;12772;49.794;10.024;2023-07-16T10:54:22;5.28;;;2.20;;
24635;SDS011;12772;49.794;10.024;2023-07-16T10:58:24;3.15;;;2.10;;
24635;SDS011;12772;49.794;10.024;2023-07-16T11:02:27;4.57;;;2.70;;
24635;SDS011;12772;49.794;10.024;2023-07-16T11:06:29;5.90;;;2.28;;
24635;SDS011;12772;49.794;10.024;2023-07-16T11:10:31;4.90;;;2.65;;
24635;SDS011;12772;49.794;10.024;2023-07-16T11:14:33;3.22;;;2.15;;
24635;SDS011;12772;49.794;10.024;2023-07-16T11:18:36;4.45;;;2.58;;
24635;SDS011;12772;49.794;10.024;2023-07-16T11:22:38;3.20;;;2.53;;
24635;SDS011;12772;49.794;10.024;2023-07-16T11:26:51;4.00;;;2.25;;
24635;SDS011;12772;49.794;10.024;2023-07-16T11:30:53;3.70;;;2.50;;
24635;SDS011;12772;49.794;10.024;2023-07-16T11:34:55;2.88;;;2.22;;
24635;SDS011;12772;49.794;10.024;2023-07-16T11:38:58;2.20;;;1.90;;
24635;SDS011;12772;49.794;10.024;2023-07-16T11:43:09;4.40;;;2.88;;
24635;SDS011;12772;49.794;10.024;2023-07-16T11:47:12;4.45;;;2.53;;
24635;SDS011;12772;49.794;10.024;2023-07-16T11:51:14;3.20;;;2.03;;
24635;SDS011;12772;49.794;10.024;2023-07-16T11:55:16;3.92;;;2.35;;
24635;SDS011;12772;49.794;10.024;2023-07-16T11:59:18;4.55;;;2.38;;
24635;SDS011;12772;49.794;10.024;2023-07-16T12:03:20;3.55;;;2.40;;
24635;SDS011;12772;49.794;10.024;2023-07-16T12:07:33;4.07;;;2.38;;
24635;SDS011;12772;49.794;10.024;2023-07-16T12:11:36;4.72;;;2.50;;
24635;SDS011;12772;49.794;10.024;2023-07-16T12:15:39;3.78;;;2.75;;
24635;SDS011;12772;49.794;10.024;2023-07-16T12:19:41;4.10;;;2.35;;
24635;SDS011;12772;49.794;10.024;2023-07-16T12:23:43;4.68;;;2.38;;
24635;SDS011;12772;49.794;10.024;2023-07-16T12:27:45;3.72;;;2.75;;
24635;SDS011;12772;49.794;10.024;2023-07-16T12:31:47;4.13;;;2.60;;
24635;SDS011;12772;49.794;10.024;2023-07-16T12:35:50;3.70;;;2.28;;
24635;SDS011;12772;49.794;10.024;2023-07-16T12:39:52;4.25;;;2.55;;
24635;SDS011;12772;49.794;10.024;2023-07-16T12:43:54;5.80;;;2.67;;
24635;SDS011;12772;49.794;10.024;2023-07-16T12:47:56;3.75;;;2.42;;
24635;SDS011;12772;49.794;10.024;2023-07-16T12:51:58;4.65;;;2.53;;
24635;SDS011;12772;49.794;10.024;2023-07-16T12:56:00;2.75;;;2.15;;
24635;SDS011;12772;49.794;10.024;2023-07-16T13:00:03;2.72;;;1.98;;
24635;SDS011;12772;49.794;10.024;2023-07-16T13:04:06;4.22;;;2.33;;
24635;SDS011;12772;49.794;10.024;2023-07-16T13:08:08;4.20;;;2.83;;
24635;SDS011;12772;49.794;10.024;2023-07-16T13:12:10;2.78;;;2.25;;
24635;SDS011;12772;49.794;10.024;2023-07-16T13:16:12;11.60;;;2.47;;
24635;SDS011;12772;49.794;10.024;2023-07-16T13:20:14;5.95;;;2.45;;
24635;SDS011;12772;49.794;10.024;2023-07-16T13:24:16;4.88;;;2.40;;
24635;SDS011;12772;49.794;10.024;2023-07-16T13:28:18;4.38;;;2.22;;
24635;SDS011;12772;49.794;10.024;2023-07-16T13:32:20;2.63;;;2.38;;
24635;SDS011;12772;49.794;10.024;2023-07-16T13:36:22;2.80;;;2.50;;
24635;SDS011;12772;49.794;10.024;2023-07-16T13:40:24;4.03;;;2.40;;
24635;SDS011;12772;49.794;10.024;2023-07-16T13:44:26;2.85;;;2.03;;
24635;SDS011;12772;49.794;10.024;2023-07-16T13:48:28;4.38;;;2.13;;
24635;SDS011;12772;49.794;10.024;2023-07-16T13:52:30;3.97;;;2.33;;
24635;SDS011;12772;49.794;10.024;2023-07-16T13:56:32;4.22;;;2.90;;
24635;SDS011;12772;49.794;10.024;2023-07-16T14:00:34;2.95;;;2.55;;
24635;SDS011;12772;49.794;10.024;2023-07-16T14:04:36;2.92;;;2.20;;
24635;SDS011;12772;49.794;10.024;2023-07-16T14:08:38;1.92;;;1.83;;
24635;SDS011;12772;49.794;10.024;2023-07-16T14:12:40;3.08;;;2.50;;
24635;SDS011;12772;49.794;10.024;2023-07-16T14:16:42;2.67;;;2.38;;
24635;SDS011;12772;49.794;10.024;2023-07-16T14:20:44;3.45;;;2.42;;
24635;SDS011;12772;49.794;10.024;2023-07-16T14:24:46;3.42;;;2.20;;
24635;SDS011;12772;49.794;10.024;2023-07-16T14:28:52;5.43;;;2.42;;
24635;SDS011;12772;49.794;10.024;2023-07-16T14:32:54;5.00;;;2.53;;
24635;SDS011;12772;49.794;10.024;2023-07-16T14:36:57;3.60;;;2.30;;
24635;SDS011;12772;49.794;10.024;2023-07-16T14:40:59;3.53;;;2.10;;
24635;SDS011;12772;49.794;10.024;2023-07-16T14:45:01;3.05;;;2.13;;
24635;SDS011;12772;49.794;10.024;2023-07-16T14:49:05;3.60;;;2.35;;
24635;SDS011;12772;49.794;10.024;2023-07-16T14:53:07;3.53;;;2.65;;
24635;SDS011;12772;49.794;10.024;2023-07-16T14:57:09;3.92;;;3.00;;
24635;SDS011;12772;49.794;10.024;2023-07-16T15:01:11;3.92;;;2.63;;
24635;SDS011;12772;49.794;10.024;2023-07-16T15:05:13;3.80;;;2.78;;
24635;SDS011;12772;49.794;10.024;2023-07-16T15:09:15;4.20;;;2.78;;
24635;SDS011;12772;49.794;10.024;2023-07-16T15:13:17;3.15;;;2.67;;
24635;SDS011;12772;49.794;10.024;2023-07-16T15:17:19;3.60;;;2.47;;
24635;SDS011;12772;49.794;10.024;2023-07-16T15:21:22;2.70;;;2.40;;
24635;SDS011;12772;49.794;10.024;2023-07-16T15:25:24;3.42;;;2.65;;
24635;SDS011;12772;49.794;10.024;2023-07-16T15:29:26;3.38;;;2.97;;
24635;SDS011;12772;49.794;10.024;2023-07-16T15:33:28;2.80;;;2.17;;
24635;SDS011;12772;49.794;10.024;2023-07-16T15:37:31;4.53;;;2.83;;
24635;SDS011;12772;49.794;10.024;2023-07-16T15:41:33;2.72;;;2.40;;
24635;SDS011;12772;49.794;10.024;2023-07-16T15:45:35;5.13;;;2.90;;
24635;SDS011;12772;49.794;10.024;2023-07-16T15:49:37;3.10;;;2.58;;
24635;SDS011;12772;49.794;10.024;2023-07-16T15:53:39;4.72;;;2.70;;
24635;SDS011;12772;49.794;10.024;2023-07-16T15:57:42;3.42;;;2.97;;
24635;SDS011;12772;49.794;10.024;2023-07-16T16:01:44;6.68;;;3.65;;
24635;SDS011;12772;49.794;10.024;2023-07-16T16:05:46;6.22;;;3.50;;
24635;SDS011;12772;49.794;10.024;2023-07-16T16:09:48;4.57;;;3.05;;
24635;SDS011;12772;49.794;10.024;2023-07-16T16:13:50;3.78;;;3.15;;
24635;SDS011;12772;49.794;10.024;2023-07-16T16:17:53;3.22;;;2.97;;
24635;SDS011;12772;49.794;10.024;2023-07-16T16:21:55;2.70;;;2.50;;
24635;SDS011;12772;49.794;10.024;2023-07-16T16:25:57;4.78;;;2.95;;
24635;SDS011;12772;49.794;10.024;2023-07-16T16:29:59;5.30;;;3.08;;
24635;SDS011;12772;49.794;10.024;2023-07-16T16:34:02;5.18;;;2.85;;
24635;SDS011;12772;49.794;10.024;2023-07-16T16:38:04;4.05;;;2.88;;
24635;SDS011;12772;49.794;10.024;2023-07-16T16:42:06;3.08;;;2.72;;
24635;SDS011;12772;49.794;10.024;2023-07-16T16:46:11;3.13;;;2.70;;
24635;SDS011;12772;49.794;10.024;2023-07-16T16:50:13;4.13;;;3.38;;
24635;SDS011;12772;49.794;10.024;2023-07-16T16:54:15;4.85;;;2.72;;
24635;SDS011;12772;49.794;10.024;2023-07-16T16:58:17;3.67;;;2.60;;
24635;SDS011;12772;49.794;10.024;2023-07-16T17:02:21;3.30;;;2.67;;
24635;SDS011;12772;49.794;10.024;2023-07-16T17:06:24;4.55;;;2.70;;
24635;SDS011;12772;49.794;10.024;2023-07-16T17:10:26;3.05;;;2.78;;
24635;SDS011;12772;49.794;10.024;2023-07-16T17:14:31;3.70;;;2.97;;
24635;SDS011;12772;49.794;10.024;2023-07-16T17:18:34;4.25;;;2.50;;
24635;SDS011;12772;49.794;10.024;2023-07-16T17:22:37;2.72;;;2.50;;
24635;SDS011;12772;49.794;10.024;2023-07-16T17:26:42;4.55;;;3.10;;
24635;SDS011;12772;49.794;10.024;2023-07-16T17:30:45;3.25;;;2.75;;
24635;SDS011;12772;49.794;10.024;2023-07-16T17:34:48;4.28;;;3.03;;
24635;SDS011;12772;49.794;10.024;2023-07-16T17:38:51;6.65;;;3.00;;
24635;SDS011;12772;49.794;10.024;2023-07-16T17:42:54;3.00;;;2.40;;
24635;SDS011;12772;49.794;10.024;2023-07-16T17:46:57;3.03;;;2.30;;
24635;SDS011;12772;49.794;10.024;2023-07-16T17:51:01;3.90;;;2.75;;
24635;SDS011;12772;49.794;10.024;2023-07-16T17:55:05;3.75;;;2.63;;
24635;SDS011;12772;49.794;10.024;2023-07-16T17:59:08;3.28;;;2.95;;
24635;SDS011;12772;49.794;10.024;2023-07-16T18:03:11;3.30;;;3.00;;
24635;SDS011;12772;49.794;10.024;2023-07-16T18:07:14;4.05;;;2.95;;
24635;SDS011;12772;49.794;10.024;2023-07-16T18:11:17;4.15;;;2.83;;
24635;SDS011;12772;49.794;10.024;2023-07-16T18:15:19;3.47;;;2.83;;
24635;SDS011;12772;49.794;10.024;2023-07-16T18:19:24;3.50;;;2.85;;
24635;SDS011;12772;49.794;10.024;2023-07-16T18:23:26;3.58;;;2.90;;
24635;SDS011;12772;49.794;10.024;2023-07-16T18:27:28;3.25;;;2.78;;
24635;SDS011;12772;49.794;10.024;2023-07-16T18:31:31;2.92;;;2.70;;
24635;SDS011;12772;49.794;10.024;2023-07-16T18:35:33;2.92;;;2.72;;
24635;SDS011;12772;49.794;10.024;2023-07-16T18:39:35;2.72;;;2.53;;
24635;SDS011;12772;49.794;10.024;2023-07-16T18:43:37;5.95;;;2.72;;
24635;SDS011;12772;49.794;10.024;2023-07-16T18:47:39;3.58;;;2.53;;
24635;SDS011;12772;49.794;10.024;2023-07-16T18:51:41;3.40;;;3.10;;
24635;SDS011;12772;49.794;10.024;2023-07-16T18:55:45;3.28;;;2.92;;
24635;SDS011;12772;49.794;10.024;2023-07-16T18:59:47;4.05;;;3.00;;
24635;SDS011;12772;49.794;10.024;2023-07-16T19:03:49;4.32;;;2.92;;
24635;SDS011;12772;49.794;10.024;2023-07-16T19:07:52;3.72;;;2.47;;
24635;SDS011;12772;49.794;10.024;2023-07-16T19:11:54;2.95;;;2.47;;
24635;SDS011;12772;49.794;10.024;2023-07-16T19:15:56;2.70;;;2.50;;
24635;SDS011;12772;49.794;10.024;2023-07-16T19:19:58;5.53;;;2.95;;
24635;SDS011;12772;49.794;10.024;2023-07-16T19:24:01;3.15;;;2.85;;
24635;SDS011;12772;49.794;10.024;2023-07-16T19:28:03;3.08;;;2.75;;
24635;SDS011;12772;49.794;10.024;2023-07-16T19:32:05;3.38;;;3.08;;
24635;SDS011;12772;49.794;10.024;2023-07-16T19:36:07;4.68;;;2.53;;
24635;SDS011;12772;49.794;10.024;2023-07-16T19:40:09;5.03;;;2.80;;
24635;SDS011;12772;49.794;10.024;2023-07-16T19:44:12;3.55;;;2.78;;
24635;SDS011;12772;49.794;10.024;2023-07-16T19:48:14;4.55;;;2.85;;
24635;SDS011;12772;49.794;10.024;2023-07-16T19:52:16;4.05;;;2.90;;
24635;SDS011;12772;49.794;10.024;2023-07-16T19:56:19;3.53;;;2.65;;
24635;SDS011;12772;49.794;10.024;2023-07-16T20:00:22;3.65;;;2.55;;
24635;SDS011;12772;49.794;10.024;2023-07-16T20:04:24;3.30;;;2.63;;
24635;SDS011;12772;49.794;10.024;2023-07-16T20:08:26;2.58;;;2.38;;
24635;SDS011;12772;49.794;10.024;2023-07-16T20:12:28;2.47;;;2.28;;
24635;SDS011;12772;49.794;10.024;2023-07-16T20:16:30;3.97;;;3.10;;
24635;SDS011;12772;49.794;10.024;2023-07-16T20:20:34;4.07;;;2.70;;
24635;SDS011;12772;49.794;10.024;2023-07-16T20:24:36;4.97;;;2.80;;
24635;SDS011;12772;49.794;10.024;2023-07-16T20:28:38;6.18;;;3.03;;
24635;SDS011;12772;49.794;10.024;2023-07-16T20:32:40;3.33;;;2.85;;
24635;SDS011;12772;49.794;10.024;2023-07-16T20:36:42;3.10;;;2.90;;
24635;SDS011;12772;49.794;10.024;2023-07-16T20:40:45;2.67;;;2.47;;
24635;SDS011;12772;49.794;10.024;2023-07-16T20:49:16;3.35;;;2.80;;
24635;SDS011;12772;49.794;10.024;2023-07-16T20:53:18;3.53;;;2.65;;
24635;SDS011;12772;49.794;10.024;2023-07-16T20:57:21;2.97;;;2.75;;
24635;SDS011;12772;49.794;10.024;2023-07-16T21:01:23;4.55;;;3.17;;
24635;SDS011;12772;49.794;10.024;2023-07-16T21:05:25;4.20;;;2.58;;
24635;SDS011;12772;49.794;10.024;2023-07-16T21:09:28;3.40;;;2.50;;
24635;SDS011;12772;49.794;10.024;2023-07-16T21:13:30;2.75;;;2.55;;
24635;SDS011;12772;49.794;10.024;2023-07-16T21:17:32;5.00;;;3.22;;
24635;SDS011;12772;49.794;10.024;2023-07-16T21:21:34;3.35;;;2.80;;
24635;SDS011;12772;49.794;10.024;2023-07-16T21:25:36;5.65;;;2.80;;
24635;SDS011;12772;49.794;10.024;2023-07-16T21:29:38;3.38;;;2.85;;
24635;SDS011;12772;49.794;10.024;2023-07-16T21:33:40;4.55;;;2.83;;
24635;SDS011;12772;49.794;10.024;2023-07-16T21:37:42;5.07;;;2.80;;
24635;SDS011;12772;49.794;10.024;2023-07-16T21:41:44;3.08;;;2.78;;
24635;SDS011;12772;49.794;10.024;2023-07-16T21:45:46;3.13;;;2.83;;
24635;SDS011;12772;49.794;10.024;2023-07-16T21:49:48;4.53;;;3.15;;
24635;SDS011;12772;49.794;10.024;2023-07-16T21:53:50;2.70;;;2.35;;
24635;SDS011;12772;49.794;10.024;2023-07-16T21:57:52;4.07;;;2.92;;
24635;SDS011;12772;49.794;10.024;2023-07-16T22:01:54;4.20;;;2.92;;
24635;SDS011;12772;49.794;10.024;2023-07-16T22:05:56;3.33;;;2.55;;
24635;SDS011;12772;49.794;10.024;2023-07-16T22:09:58;6.35;;;3.15;;
24635;SDS011;12772;49.794;10.024;2023-07-16T22:14:01;3.47;;;2.80;;
24635;SDS011;12772;49.794;10.024;2023-07-16T22:18:06;3.08;;;2.83;;
24635;SDS011;12772;49.794;10.024;2023-07-16T22:22:08;3.15;;;2.88;;
24635;SDS011;12772;49.794;10.024;2023-07-16T22:26:10;4.22;;;3.08;;
24635;SDS011;12772;49.794;10.024;2023-07-16T22:30:12;3.15;;;2.70;;
24635;SDS011;12772;49.794;10.024;2023-07-16T22:34:14;3.38;;;2.60;;
24635;SDS011;12772;49.794;10.024;2023-07-16T22:38:16;3.40;;;3.10;;
24635;SDS011;12772;49.794;10.024;2023-07-16T22:42:18;3.67;;;2.88;;
24635;SDS011;12772;49.794;10.024;2023-07-16T22:46:20;4.45;;;2.67;;
24635;SDS011;12772;49.794;10.024;2023-07-16T22:50:22;5.35;;;3.20;;
24635;SDS011;12772;49.794;10.024;2023-07-16T22:54:24;3.05;;;2.85;;
24635;SDS011;12772;49.794;10.024;2023-07-16T22:58:26;3.95;;;3.03;;
24635;SDS011;12772;49.794;10.024;2023-07-16T23:02:28;5.07;;;2.95;;
24635;SDS011;12772;49.794;10.024;2023-07-16T23:06:30;3.33;;;2.85;;
24635;SDS011;12772;49.794;10.024;2023-07-16T23:10:32;3.42;;;3.13;;
24635;SDS011;12772;49.794;10.024;2023-07-16T23:14:34;2.88;;;2.55;;
24635;SDS011;12772;49.794;10.024;2023-07-16T23:18:40;3.00;;;2.70;;
24635;SDS011;12772;49.794;10.024;2023-07-16T23:22:42;2.60;;;2.40;;
24635;SDS011;12772;49.794;10.024;2023-07-16T23:26:44;3.00;;;2.70;;
24635;SDS011;12772;49.794;10.024;2023-07-16T23:30:46;4.30;;;2.90;;
24635;SDS011;12772;49.794;10.024;2023-07-16T23:34:50;3.05;;;2.75;;
24635;SDS011;12772;49.794;10.024;2023-07-16T23:38:52;4.38;;;3.20;;
24635;SDS011;12772;49.794;10.024;2023-07-16T23:42:54;3.15;;;2.88;;
24635;SDS011;12772;49.794;10.024;2023-07-16T23:46:56;3.25;;;2.95;;
24635;SDS011;12772;49.794;10.024;2023-07-16T23:50:59;3.20;;;2.90;;
24635;SDS011;12772;49.794;10.024;2023-07-16T23:55:02;3.25;;;2.83;;
24635;SDS011;12772;49.794;10.024;2023-07-16T23:59:05;4.43;;;3.30;;
